sensor_id;sensor_type;location;lat;lon;timestamp;pressure;altitude;pressure_sealevel;temperature;humidity
50774;BME280;36745;48.544;8.918;2022-11-04T00:00:29;96424.66;;;9.82;100.00
50774;BME280;36745;48.544;8.918;2022-11-04T00:03:52;96425.56;;;9.79;100.00
50774;BME280;36745;48.544;8.918;2022-11-04T00:07:13;96432.59;;;9.80;100.00
50774;BME280;36745;48.544;8.918;2022-11-04T00:10:57;96429.06;;;9.70;100.00
50774;BME280;36745;48.544;8.918;2022-11-04T00:14:37;96432.28;;;9.68;100.00
50774;BME280;36745;48.544;8.918;2022-11-04T00:17:59;96431.38;;;9.72;100.00
50774;BME280;36745;48.544;8.918;2022-11-04T00:21:20;96430.59;;;9.71;100.00
50774;BME280;36745;48.544;8.918;2022-11-04T00:25:00;96435.34;;;9.71;100.00
50774;BME280;36745;48.544;8.918;2022-11-04T00:28:40;96436.88;;;9.72;100.00
50774;BME280;36745;48.544;8.918;2022-11-04T00:32:04;96443.88;;;9.73;100.00
50774;BME280;36745;48.544;8.918;2022-11-04T00:35:49;96436.72;;;9.75;100.00
50774;BME280;36745;48.544;8.918;2022-11-04T00:39:10;96446.97;;;9.75;100.00
50774;BME280;36745;48.544;8.918;2022-11-04T00:42:32;96446.03;;;9.78;100.00
50774;BME280;36745;48.544;8.918;2022-11-04T00:45:53;96439.31;;;9.79;100.00
50774;BME280;36745;48.544;8.918;2022-11-04T00:49:14;96449.09;;;9.80;100.00
50774;BME280;36745;48.544;8.918;2022-11-04T00:52:36;96444.38;;;9.80;100.00
50774;BME280;36745;48.544;8.918;2022-11-04T00:56:00;96447.56;;;9.79;100.00
50774;BME280;36745;48.544;8.918;2022-11-04T00:59:21;96457.09;;;9.87;100.00
50774;BME280;36745;48.544;8.918;2022-11-04T01:02:42;96454.34;;;9.87;100.00
50774;BME280;36745;48.544;8.918;2022-11-04T01:06:04;96455.88;;;9.88;100.00
50774;BME280;36745;48.544;8.918;2022-11-04T01:09:25;96467.78;;;9.85;100.00
50774;BME280;36745;48.544;8.918;2022-11-04T01:12:47;96463.34;;;9.87;100.00
50774;BME280;36745;48.544;8.918;2022-11-04T01:16:09;96462.28;;;9.85;100.00
50774;BME280;36745;48.544;8.918;2022-11-04T01:19:31;96467.78;;;9.85;100.00
50774;BME280;36745;48.544;8.918;2022-11-04T01:22:52;96479.72;;;9.91;100.00
50774;BME280;36745;48.544;8.918;2022-11-04T01:26:16;96476.97;;;9.91;100.00
50774;BME280;36745;48.544;8.918;2022-11-04T01:29:38;96478.50;;;9.92;100.00
50774;BME280;36745;48.544;8.918;2022-11-04T01:32:59;96472.84;;;9.86;100.00
50774;BME280;36745;48.544;8.918;2022-11-04T01:36:21;96472.69;;;9.90;100.00
50774;BME280;36745;48.544;8.918;2022-11-04T01:39:42;96463.03;;;9.85;100.00
50774;BME280;36745;48.544;8.918;2022-11-04T01:43:15;96470.84;;;9.87;100.00
50774;BME280;36745;48.544;8.918;2022-11-04T01:46:45;96464.69;;;9.83;100.00
50774;BME280;36745;48.544;8.918;2022-11-04T01:50:24;96483.06;;;9.77;100.00
50774;BME280;36745;48.544;8.918;2022-11-04T01:53:49;96474.16;;;9.73;100.00
50774;BME280;36745;48.544;8.918;2022-11-04T01:57:19;96467.09;;;9.62;100.00
50774;BME280;36745;48.544;8.918;2022-11-04T02:00:44;96463.75;;;9.67;100.00
50774;BME280;36745;48.544;8.918;2022-11-04T02:04:05;96458.69;;;9.57;100.00
50774;BME280;36745;48.544;8.918;2022-11-04T02:07:49;96464.34;;;9.62;100.00
50774;BME280;36745;48.544;8.918;2022-11-04T02:11:12;96471.84;;;9.62;100.00
50774;BME280;36745;48.544;8.918;2022-11-04T02:14:53;96472.00;;;9.58;100.00
50774;BME280;36745;48.544;8.918;2022-11-04T02:22:09;96461.13;;;9.55;100.00
50774;BME280;36745;48.544;8.918;2022-11-04T02:29:31;96453.31;;;9.44;100.00
50774;BME280;36745;48.544;8.918;2022-11-04T02:36:44;96446.47;;;9.18;100.00
50774;BME280;36745;48.544;8.918;2022-11-04T02:40:25;96462.66;;;9.16;100.00
50774;BME280;36745;48.544;8.918;2022-11-04T02:44:19;96446.06;;;8.98;100.00
50774;BME280;36745;48.544;8.918;2022-11-04T02:47:44;96454.91;;;8.93;100.00
50774;BME280;36745;48.544;8.918;2022-11-04T02:51:14;96448.19;;;8.94;100.00
50774;BME280;36745;48.544;8.918;2022-11-04T02:54:50;96422.06;;;8.89;100.00
50774;BME280;36745;48.544;8.918;2022-11-04T02:58:21;96421.56;;;8.81;100.00
50774;BME280;36745;48.544;8.918;2022-11-04T03:01:45;96433.47;;;8.78;100.00
50774;BME280;36745;48.544;8.918;2022-11-04T03:05:15;96428.22;;;8.71;100.00
50774;BME280;36745;48.544;8.918;2022-11-04T03:08:40;96435.50;;;8.65;100.00
50774;BME280;36745;48.544;8.918;2022-11-04T03:12:08;96429.06;;;8.59;100.00
50774;BME280;36745;48.544;8.918;2022-11-04T03:15:33;96444.59;;;8.53;100.00
50774;BME280;36745;48.544;8.918;2022-11-04T03:19:00;96443.97;;;8.49;100.00
50774;BME280;36745;48.544;8.918;2022-11-04T03:22:25;96437.84;;;8.45;100.00
50774;BME280;36745;48.544;8.918;2022-11-04T03:25:50;96447.28;;;8.44;100.00
50774;BME280;36745;48.544;8.918;2022-11-04T03:33:07;96461.25;;;8.37;100.00
50774;BME280;36745;48.544;8.918;2022-11-04T03:36:32;96476.78;;;8.31;100.00
50774;BME280;36745;48.544;8.918;2022-11-04T03:39:53;96485.56;;;8.26;100.00
50774;BME280;36745;48.544;8.918;2022-11-04T03:43:25;96472.38;;;8.21;100.00
50774;BME280;36745;48.544;8.918;2022-11-04T03:46:47;96480.31;;;8.19;100.00
50774;BME280;36745;48.544;8.918;2022-11-04T03:50:16;96494.63;;;8.14;100.00
50774;BME280;36745;48.544;8.918;2022-11-04T03:53:39;96487.59;;;8.13;100.00
50774;BME280;36745;48.544;8.918;2022-11-04T04:00:29;96482.09;;;8.13;100.00
50774;BME280;36745;48.544;8.918;2022-11-04T04:03:58;96487.81;;;8.06;100.00
50774;BME280;36745;48.544;8.918;2022-11-04T04:07:40;96486.28;;;8.05;100.00
50774;BME280;36745;48.544;8.918;2022-11-04T04:14:33;96467.19;;;8.01;100.00
50774;BME280;36745;48.544;8.918;2022-11-04T04:18:02;96475.09;;;7.99;100.00
50774;BME280;36745;48.544;8.918;2022-11-04T04:21:29;96479.63;;;7.93;100.00
50774;BME280;36745;48.544;8.918;2022-11-04T04:24:53;96500.16;;;7.88;100.00
50774;BME280;36745;48.544;8.918;2022-11-04T04:28:36;96506.97;;;7.84;100.00
50774;BME280;36745;48.544;8.918;2022-11-04T04:31:57;96507.72;;;7.84;100.00
50774;BME280;36745;48.544;8.918;2022-11-04T04:35:25;96502.69;;;7.83;100.00
50774;BME280;36745;48.544;8.918;2022-11-04T04:39:04;96507.44;;;7.82;100.00
50774;BME280;36745;48.544;8.918;2022-11-04T04:42:45;96490.28;;;7.78;100.00
50774;BME280;36745;48.544;8.918;2022-11-04T04:46:24;96466.81;;;7.77;100.00
50774;BME280;36745;48.544;8.918;2022-11-04T04:49:57;96449.69;;;7.73;100.00
50774;BME280;36745;48.544;8.918;2022-11-04T04:53:18;96445.09;;;7.70;100.00
50774;BME280;36745;48.544;8.918;2022-11-04T04:56:39;96435.34;;;7.69;100.00
50774;BME280;36745;48.544;8.918;2022-11-04T05:00:01;96413.06;;;7.67;100.00
50774;BME280;36745;48.544;8.918;2022-11-04T05:03:23;96403.75;;;7.65;100.00
50774;BME280;36745;48.544;8.918;2022-11-04T05:06:45;96412.00;;;7.52;100.00
50774;BME280;36745;48.544;8.918;2022-11-04T05:10:07;96399.75;;;7.44;100.00
50774;BME280;36745;48.544;8.918;2022-11-04T05:13:30;96395.81;;;7.45;100.00
50774;BME280;36745;48.544;8.918;2022-11-04T05:16:51;96399.84;;;7.40;100.00
50774;BME280;36745;48.544;8.918;2022-11-04T05:20:12;96415.53;;;7.40;100.00
50774;BME280;36745;48.544;8.918;2022-11-04T05:23:34;96423.75;;;7.40;100.00
50774;BME280;36745;48.544;8.918;2022-11-04T05:26:55;96436.81;;;7.36;100.00
50774;BME280;36745;48.544;8.918;2022-11-04T05:30:17;96447.78;;;7.36;100.00
50774;BME280;36745;48.544;8.918;2022-11-04T05:33:38;96450.88;;;7.38;100.00
50774;BME280;36745;48.544;8.918;2022-11-04T05:36:59;96448.44;;;7.40;100.00
50774;BME280;36745;48.544;8.918;2022-11-04T05:40:20;96449.66;;;7.39;100.00
50774;BME280;36745;48.544;8.918;2022-11-04T05:43:41;96458.75;;;7.36;100.00
50774;BME280;36745;48.544;8.918;2022-11-04T05:47:03;96441.53;;;7.35;100.00
50774;BME280;36745;48.544;8.918;2022-11-04T05:50:24;96430.69;;;7.32;100.00
50774;BME280;36745;48.544;8.918;2022-11-04T05:53:45;96432.78;;;7.28;100.00
50774;BME280;36745;48.544;8.918;2022-11-04T05:57:08;96419.06;;;7.28;100.00
50774;BME280;36745;48.544;8.918;2022-11-04T06:00:30;96413.25;;;7.26;100.00
50774;BME280;36745;48.544;8.918;2022-11-04T06:03:52;96409.09;;;7.21;100.00
50774;BME280;36745;48.544;8.918;2022-11-04T06:07:13;96414.16;;;7.23;100.00
50774;BME280;36745;48.544;8.918;2022-11-04T06:10:35;96410.09;;;7.14;100.00
50774;BME280;36745;48.544;8.918;2022-11-04T06:13:56;96420.41;;;7.10;100.00
50774;BME280;36745;48.544;8.918;2022-11-04T06:17:20;96431.00;;;7.08;100.00
50774;BME280;36745;48.544;8.918;2022-11-04T06:20:41;96451.09;;;7.05;100.00
50774;BME280;36745;48.544;8.918;2022-11-04T06:24:03;96451.94;;;7.02;100.00
50774;BME280;36745;48.544;8.918;2022-11-04T06:27:24;96450.44;;;7.01;100.00
50774;BME280;36745;48.544;8.918;2022-11-04T06:30:45;96468.72;;;7.04;100.00
50774;BME280;36745;48.544;8.918;2022-11-04T06:34:07;96472.13;;;7.08;100.00
50774;BME280;36745;48.544;8.918;2022-11-04T06:37:28;96484.84;;;7.02;100.00
50774;BME280;36745;48.544;8.918;2022-11-04T06:40:49;96487.91;;;7.04;100.00
50774;BME280;36745;48.544;8.918;2022-11-04T06:44:10;96497.69;;;7.05;100.00
50774;BME280;36745;48.544;8.918;2022-11-04T06:47:32;96498.44;;;7.06;100.00
50774;BME280;36745;48.544;8.918;2022-11-04T06:50:53;96497.13;;;7.10;100.00
50774;BME280;36745;48.544;8.918;2022-11-04T06:54:15;96488.47;;;7.12;100.00
50774;BME280;36745;48.544;8.918;2022-11-04T06:57:36;96484.50;;;7.13;100.00
50774;BME280;36745;48.544;8.918;2022-11-04T07:00:58;96490.75;;;7.13;100.00
50774;BME280;36745;48.544;8.918;2022-11-04T07:04:19;96482.00;;;7.18;100.00
50774;BME280;36745;48.544;8.918;2022-11-04T07:07:41;96472.91;;;7.22;100.00
50774;BME280;36745;48.544;8.918;2022-11-04T07:11:02;96467.22;;;7.29;100.00
50774;BME280;36745;48.544;8.918;2022-11-04T07:14:23;96469.28;;;7.25;100.00
50774;BME280;36745;48.544;8.918;2022-11-04T07:17:45;96460.50;;;7.30;100.00
50774;BME280;36745;48.544;8.918;2022-11-04T07:21:06;96459.84;;;7.26;100.00
50774;BME280;36745;48.544;8.918;2022-11-04T07:24:27;96450.22;;;7.34;100.00
50774;BME280;36745;48.544;8.918;2022-11-04T07:27:49;96450.97;;;7.34;100.00
50774;BME280;36745;48.544;8.918;2022-11-04T07:31:12;96445.38;;;7.38;100.00
50774;BME280;36745;48.544;8.918;2022-11-04T07:34:33;96449.97;;;7.41;100.00
50774;BME280;36745;48.544;8.918;2022-11-04T07:37:54;96465.22;;;7.42;100.00
50774;BME280;36745;48.544;8.918;2022-11-04T07:41:16;96459.81;;;7.51;100.00
50774;BME280;36745;48.544;8.918;2022-11-04T07:44:38;96455.00;;;7.55;100.00
50774;BME280;36745;48.544;8.918;2022-11-04T07:47:59;96448.72;;;7.67;100.00
50774;BME280;36745;48.544;8.918;2022-11-04T07:51:20;96450.69;;;7.67;100.00
50774;BME280;36745;48.544;8.918;2022-11-04T07:54:41;96448.84;;;7.76;100.00
50774;BME280;36745;48.544;8.918;2022-11-04T07:58:02;96448.84;;;7.76;100.00
50774;BME280;36745;48.544;8.918;2022-11-04T08:01:24;96455.53;;;7.75;100.00
50774;BME280;36745;48.544;8.918;2022-11-04T08:04:45;96450.00;;;7.88;100.00
50774;BME280;36745;48.544;8.918;2022-11-04T08:08:06;96443.75;;;7.87;100.00
50774;BME280;36745;48.544;8.918;2022-11-04T08:11:28;96431.31;;;7.95;100.00
50774;BME280;36745;48.544;8.918;2022-11-04T08:14:49;96425.03;;;8.08;100.00
50774;BME280;36745;48.544;8.918;2022-11-04T08:18:11;96433.31;;;8.17;100.00
50774;BME280;36745;48.544;8.918;2022-11-04T08:21:32;96440.97;;;8.22;100.00
50774;BME280;36745;48.544;8.918;2022-11-04T08:24:54;96449.53;;;8.24;100.00
50774;BME280;36745;48.544;8.918;2022-11-04T08:28:15;96442.72;;;8.28;100.00
50774;BME280;36745;48.544;8.918;2022-11-04T08:31:40;96434.13;;;8.39;100.00
50774;BME280;36745;48.544;8.918;2022-11-04T08:35:02;96439.94;;;8.41;100.00
50774;BME280;36745;48.544;8.918;2022-11-04T08:38:23;96439.09;;;8.53;100.00
50774;BME280;36745;48.544;8.918;2022-11-04T08:41:45;96431.56;;;8.66;100.00
50774;BME280;36745;48.544;8.918;2022-11-04T08:45:07;96427.06;;;8.81;100.00
50774;BME280;36745;48.544;8.918;2022-11-04T08:48:28;96434.72;;;8.87;100.00
50774;BME280;36745;48.544;8.918;2022-11-04T08:51:49;96446.47;;;8.87;100.00
50774;BME280;36745;48.544;8.918;2022-11-04T08:55:16;96446.53;;;8.96;100.00
50774;BME280;36745;48.544;8.918;2022-11-04T08:58:37;96456.47;;;9.03;100.00
50774;BME280;36745;48.544;8.918;2022-11-04T09:01:58;96465.03;;;8.96;100.00
50774;BME280;36745;48.544;8.918;2022-11-04T09:05:20;96465.06;;;9.05;100.00
50774;BME280;36745;48.544;8.918;2022-11-04T09:08:42;96474.06;;;9.05;100.00
50774;BME280;36745;48.544;8.918;2022-11-04T09:12:03;96484.53;;;9.19;100.00
50774;BME280;36745;48.544;8.918;2022-11-04T09:15:24;96487.59;;;9.21;100.00
50774;BME280;36745;48.544;8.918;2022-11-04T09:18:46;96489.59;;;9.30;100.00
50774;BME280;36745;48.544;8.918;2022-11-04T09:22:07;96486.16;;;9.39;100.00
50774;BME280;36745;48.544;8.918;2022-11-04T09:25:28;96491.34;;;9.46;100.00
50774;BME280;36745;48.544;8.918;2022-11-04T09:28:54;96482.38;;;9.54;100.00
50774;BME280;36745;48.544;8.918;2022-11-04T09:32:16;96486.06;;;9.60;100.00
50774;BME280;36745;48.544;8.918;2022-11-04T09:35:37;96475.06;;;9.60;100.00
50774;BME280;36745;48.544;8.918;2022-11-04T09:38:58;96476.56;;;9.61;100.00
50774;BME280;36745;48.544;8.918;2022-11-04T09:45:52;96476.56;;;9.52;100.00
50774;BME280;36745;48.544;8.918;2022-11-04T09:49:15;96471.72;;;9.65;100.00
50774;BME280;36745;48.544;8.918;2022-11-04T09:52:42;96471.41;;;9.73;100.00
50774;BME280;36745;48.544;8.918;2022-11-04T09:56:21;96460.72;;;9.84;100.00
50774;BME280;36745;48.544;8.918;2022-11-04T09:59:46;96456.75;;;9.85;100.00
50774;BME280;36745;48.544;8.918;2022-11-04T10:03:18;96453.84;;;9.79;100.00
50774;BME280;36745;48.544;8.918;2022-11-04T10:18:18;96458.34;;;10.04;100.00
50774;BME280;36745;48.544;8.918;2022-11-04T10:21:56;96452.81;;;10.13;100.00
50774;BME280;36745;48.544;8.918;2022-11-04T10:25:21;96444.59;;;10.31;100.00
50774;BME280;36745;48.544;8.918;2022-11-04T10:28:49;96443.69;;;10.34;99.91
50774;BME280;36745;48.544;8.918;2022-11-04T10:32:18;96449.66;;;10.24;99.63
50774;BME280;36745;48.544;8.918;2022-11-04T10:35:57;96446.59;;;10.40;99.39
50774;BME280;36745;48.544;8.918;2022-11-04T10:39:26;96444.41;;;10.53;99.68
50774;BME280;36745;48.544;8.918;2022-11-04T10:42:48;96444.56;;;10.68;99.99
50774;BME280;36745;48.544;8.918;2022-11-04T10:46:40;96437.50;;;10.76;99.52
50774;BME280;36745;48.544;8.918;2022-11-04T10:50:18;96426.19;;;10.74;98.77
50774;BME280;36745;48.544;8.918;2022-11-04T10:53:42;96426.94;;;10.74;98.23
50774;BME280;36745;48.544;8.918;2022-11-04T10:57:03;96426.50;;;10.67;97.60
50774;BME280;36745;48.544;8.918;2022-11-04T11:00:51;96425.72;;;10.66;96.61
50774;BME280;36745;48.544;8.918;2022-11-04T11:04:24;96419.13;;;10.73;96.93
50774;BME280;36745;48.544;8.918;2022-11-04T11:07:51;96418.47;;;10.87;97.77
50774;BME280;36745;48.544;8.918;2022-11-04T11:11:37;96417.84;;;11.01;97.06
50774;BME280;36745;48.544;8.918;2022-11-04T11:15:17;96415.38;;;11.03;95.52
50774;BME280;36745;48.544;8.918;2022-11-04T11:18:39;96400.34;;;11.04;95.12
50774;BME280;36745;48.544;8.918;2022-11-04T11:22:02;96409.94;;;10.85;92.68
50774;BME280;36745;48.544;8.918;2022-11-04T11:25:33;96401.66;;;10.76;92.63
50774;BME280;36745;48.544;8.918;2022-11-04T11:28:57;96398.72;;;10.88;93.57
50774;BME280;36745;48.544;8.918;2022-11-04T11:32:33;96397.56;;;11.13;91.56
50774;BME280;36745;48.544;8.918;2022-11-04T11:36:02;96393.81;;;11.25;90.37
50774;BME280;36745;48.544;8.918;2022-11-04T11:39:26;96396.78;;;11.78;92.33
50774;BME280;36745;48.544;8.918;2022-11-04T11:42:48;96389.06;;;12.06;90.64
50774;BME280;36745;48.544;8.918;2022-11-04T11:46:11;96373.91;;;11.78;88.67
50774;BME280;36745;48.544;8.918;2022-11-04T11:49:35;96376.97;;;11.80;88.28
50774;BME280;36745;48.544;8.918;2022-11-04T11:53:12;96382.75;;;12.06;89.41
50774;BME280;36745;48.544;8.918;2022-11-04T11:56:35;96377.19;;;11.91;87.12
50774;BME280;36745;48.544;8.918;2022-11-04T12:00:07;96371.13;;;12.02;88.20
50774;BME280;36745;48.544;8.918;2022-11-04T12:03:33;96373.13;;;12.01;86.24
50774;BME280;36745;48.544;8.918;2022-11-04T12:07:06;96372.03;;;12.23;88.10
50774;BME280;36745;48.544;8.918;2022-11-04T12:10:44;96371.38;;;12.28;84.57
50774;BME280;36745;48.544;8.918;2022-11-04T12:22:15;96366.59;;;12.13;83.59
50774;BME280;36745;48.544;8.918;2022-11-04T12:37:25;96375.56;;;13.11;81.89
50774;BME280;36745;48.544;8.918;2022-11-04T12:41:05;96385.34;;;13.76;79.02
50774;BME280;36745;48.544;8.918;2022-11-04T12:44:38;96391.28;;;13.69;75.94
50774;BME280;36745;48.544;8.918;2022-11-04T12:48:06;96384.78;;;13.37;74.97
50774;BME280;36745;48.544;8.918;2022-11-04T13:02:21;96384.94;;;13.14;75.02
50774;BME280;36745;48.544;8.918;2022-11-04T13:05:50;96386.13;;;13.42;72.59
50774;BME280;36745;48.544;8.918;2022-11-04T13:09:44;96383.34;;;13.42;72.38
50774;BME280;36745;48.544;8.918;2022-11-04T13:13:07;96394.59;;;13.94;73.59
50774;BME280;36745;48.544;8.918;2022-11-04T13:16:37;96394.84;;;14.82;74.78
50774;BME280;36745;48.544;8.918;2022-11-04T13:20:05;96394.28;;;15.04;69.43
50774;BME280;36745;48.544;8.918;2022-11-04T13:23:41;96393.91;;;14.39;70.31
50774;BME280;36745;48.544;8.918;2022-11-04T13:27:20;96399.44;;;13.78;70.02
50774;BME280;36745;48.544;8.918;2022-11-04T13:30:53;96404.50;;;13.45;70.34
50774;BME280;36745;48.544;8.918;2022-11-04T13:38:14;96398.97;;;12.95;71.20
50774;BME280;36745;48.544;8.918;2022-11-04T13:45:10;96411.06;;;13.13;72.13
50774;BME280;36745;48.544;8.918;2022-11-04T13:48:32;96409.94;;;12.90;71.31
50774;BME280;36745;48.544;8.918;2022-11-04T13:52:05;96417.81;;;12.97;72.01
50774;BME280;36745;48.544;8.918;2022-11-04T13:55:29;96417.66;;;13.00;71.86
50774;BME280;36745;48.544;8.918;2022-11-04T13:58:52;96418.88;;;12.99;72.18
50774;BME280;36745;48.544;8.918;2022-11-04T14:12:44;96430.88;;;12.52;72.38
50774;BME280;36745;48.544;8.918;2022-11-04T14:16:11;96429.25;;;12.46;72.28
50774;BME280;36745;48.544;8.918;2022-11-04T14:19:56;96427.25;;;12.46;72.44
50774;BME280;36745;48.544;8.918;2022-11-04T14:23:21;96429.81;;;12.50;72.88
50774;BME280;36745;48.544;8.918;2022-11-04T14:26:45;96426.19;;;12.44;72.38
50774;BME280;36745;48.544;8.918;2022-11-04T14:30:30;96436.84;;;12.36;72.31
50774;BME280;36745;48.544;8.918;2022-11-04T14:33:55;96437.34;;;12.35;72.49
50774;BME280;36745;48.544;8.918;2022-11-04T14:37:20;96436.75;;;12.31;72.55
50774;BME280;36745;48.544;8.918;2022-11-04T14:48:00;96444.88;;;12.10;73.02
50774;BME280;36745;48.544;8.918;2022-11-04T14:51:30;96444.59;;;12.08;72.84
50774;BME280;36745;48.544;8.918;2022-11-04T14:54:54;96444.66;;;11.99;72.74
50774;BME280;36745;48.544;8.918;2022-11-04T14:58:24;96451.34;;;11.84;72.67
50774;BME280;36745;48.544;8.918;2022-11-04T15:01:47;96461.69;;;11.74;72.97
50774;BME280;36745;48.544;8.918;2022-11-04T15:05:25;96457.72;;;11.66;73.46
50774;BME280;36745;48.544;8.918;2022-11-04T15:08:47;96462.94;;;11.64;73.57
50774;BME280;36745;48.544;8.918;2022-11-04T15:15:48;96479.16;;;11.38;73.46
50774;BME280;36745;48.544;8.918;2022-11-04T15:19:21;96486.69;;;11.28;73.86
50774;BME280;36745;48.544;8.918;2022-11-04T15:22:45;96490.06;;;11.23;74.37
50774;BME280;36745;48.544;8.918;2022-11-04T15:26:06;96494.09;;;11.22;74.75
50774;BME280;36745;48.544;8.918;2022-11-04T15:29:27;96496.53;;;11.20;75.01
50774;BME280;36745;48.544;8.918;2022-11-04T15:32:59;96497.75;;;11.19;75.03
50774;BME280;36745;48.544;8.918;2022-11-04T15:36:23;96499.47;;;11.17;75.19
50774;BME280;36745;48.544;8.918;2022-11-04T15:39:50;96509.41;;;11.14;75.49
50774;BME280;36745;48.544;8.918;2022-11-04T15:43:13;96512.22;;;11.05;75.36
50774;BME280;36745;48.544;8.918;2022-11-04T15:46:35;96525.69;;;10.94;75.22
50774;BME280;36745;48.544;8.918;2022-11-04T15:50:03;96516.81;;;10.99;74.83
50774;BME280;36745;48.544;8.918;2022-11-04T15:53:46;96521.28;;;10.78;75.05
50774;BME280;36745;48.544;8.918;2022-11-04T15:57:14;96528.03;;;10.68;75.94
50774;BME280;36745;48.544;8.918;2022-11-04T16:00:36;96528.16;;;10.65;76.26
50774;BME280;36745;48.544;8.918;2022-11-04T16:03:59;96534.00;;;10.67;76.59
50774;BME280;36745;48.544;8.918;2022-11-04T16:07:22;96535.97;;;10.66;75.94
50774;BME280;36745;48.544;8.918;2022-11-04T16:10:44;96543.16;;;10.55;76.55
50774;BME280;36745;48.544;8.918;2022-11-04T16:14:24;96544.25;;;10.57;76.88
50774;BME280;36745;48.544;8.918;2022-11-04T16:17:46;96549.00;;;10.57;77.12
50774;BME280;36745;48.544;8.918;2022-11-04T16:21:28;96553.59;;;10.60;77.35
50774;BME280;36745;48.544;8.918;2022-11-04T16:24:51;96554.81;;;10.68;76.96
50774;BME280;36745;48.544;8.918;2022-11-04T16:28:20;96556.94;;;10.55;79.05
50774;BME280;36745;48.544;8.918;2022-11-04T16:31:41;96564.94;;;10.52;79.96
50774;BME280;36745;48.544;8.918;2022-11-04T16:35:12;96578.84;;;10.49;80.33
50774;BME280;36745;48.544;8.918;2022-11-04T16:38:34;96575.47;;;10.45;81.21
50774;BME280;36745;48.544;8.918;2022-11-04T16:41:55;96584.78;;;10.38;82.18
50774;BME280;36745;48.544;8.918;2022-11-04T16:45:29;96593.38;;;10.49;80.64
50774;BME280;36745;48.544;8.918;2022-11-04T16:48:51;96589.38;;;10.32;81.59
50774;BME280;36745;48.544;8.918;2022-11-04T16:52:22;96595.53;;;10.36;80.86
50774;BME280;36745;48.544;8.918;2022-11-04T16:55:45;96609.69;;;10.17;83.26
50774;BME280;36745;48.544;8.918;2022-11-04T16:59:09;96612.84;;;10.15;84.88
50774;BME280;36745;48.544;8.918;2022-11-04T17:02:34;96620.56;;;10.20;83.91
50774;BME280;36745;48.544;8.918;2022-11-04T17:05:57;96616.50;;;10.03;84.56
50774;BME280;36745;48.544;8.918;2022-11-04T17:09:21;96622.91;;;10.00;84.98
50774;BME280;36745;48.544;8.918;2022-11-04T17:12:42;96626.88;;;9.99;86.99
50774;BME280;36745;48.544;8.918;2022-11-04T17:16:10;96633.63;;;9.98;87.31
50774;BME280;36745;48.544;8.918;2022-11-04T17:19:32;96634.56;;;10.04;87.29
50774;BME280;36745;48.544;8.918;2022-11-04T17:22:54;96644.03;;;10.03;87.76
50774;BME280;36745;48.544;8.918;2022-11-04T17:26:15;96646.97;;;10.08;86.64
50774;BME280;36745;48.544;8.918;2022-11-04T17:29:36;96649.81;;;9.96;87.61
50774;BME280;36745;48.544;8.918;2022-11-04T17:32:58;96647.66;;;9.91;89.00
50774;BME280;36745;48.544;8.918;2022-11-04T17:36:20;96652.25;;;9.94;89.31
50774;BME280;36745;48.544;8.918;2022-11-04T17:39:41;96659.28;;;9.95;88.84
50774;BME280;36745;48.544;8.918;2022-11-04T17:43:03;96665.97;;;9.85;89.54
50774;BME280;36745;48.544;8.918;2022-11-04T17:46:43;96664.72;;;9.77;90.58
50774;BME280;36745;48.544;8.918;2022-11-04T17:50:08;96663.78;;;9.71;91.15
50774;BME280;36745;48.544;8.918;2022-11-04T17:53:29;96664.34;;;9.65;91.26
50774;BME280;36745;48.544;8.918;2022-11-04T17:56:50;96674.44;;;9.68;91.14
50774;BME280;36745;48.544;8.918;2022-11-04T18:00:12;96683.28;;;9.63;91.03
50774;BME280;36745;48.544;8.918;2022-11-04T18:03:34;96688.78;;;9.63;90.47
50774;BME280;36745;48.544;8.918;2022-11-04T18:06:56;96693.28;;;9.48;91.36
50774;BME280;36745;48.544;8.918;2022-11-04T18:10:18;96691.88;;;9.44;91.55
50774;BME280;36745;48.544;8.918;2022-11-04T18:13:39;96703.00;;;9.40;91.33
50774;BME280;36745;48.544;8.918;2022-11-04T18:17:00;96706.66;;;9.37;91.97
50774;BME280;36745;48.544;8.918;2022-11-04T18:20:22;96710.94;;;9.38;92.22
50774;BME280;36745;48.544;8.918;2022-11-04T18:23:43;96714.91;;;9.37;92.48
50774;BME280;36745;48.544;8.918;2022-11-04T18:27:04;96721.16;;;9.38;92.85
50774;BME280;36745;48.544;8.918;2022-11-04T18:30:25;96721.94;;;9.38;93.07
50774;BME280;36745;48.544;8.918;2022-11-04T18:33:47;96723.72;;;9.32;93.23
50774;BME280;36745;48.544;8.918;2022-11-04T18:37:08;96724.59;;;9.29;93.71
50774;BME280;36745;48.544;8.918;2022-11-04T18:40:30;96733.41;;;9.24;93.76
50774;BME280;36745;48.544;8.918;2022-11-04T18:43:51;96744.56;;;9.20;94.27
50774;BME280;36745;48.544;8.918;2022-11-04T18:47:12;96752.03;;;9.20;94.05
50774;BME280;36745;48.544;8.918;2022-11-04T18:50:34;96746.19;;;9.18;94.17
50774;BME280;36745;48.544;8.918;2022-11-04T18:53:56;96746.31;;;9.14;94.27
50774;BME280;36745;48.544;8.918;2022-11-04T18:57:18;96751.38;;;9.16;94.88
50774;BME280;36745;48.544;8.918;2022-11-04T19:00:39;96745.69;;;9.10;95.06
50774;BME280;36745;48.544;8.918;2022-11-04T19:04:00;96758.88;;;9.15;95.58
50774;BME280;36745;48.544;8.918;2022-11-04T19:07:22;96762.81;;;9.14;95.47
50774;BME280;36745;48.544;8.918;2022-11-04T19:10:43;96774.59;;;9.15;96.33
50774;BME280;36745;48.544;8.918;2022-11-04T19:14:07;96773.47;;;9.25;94.36
50774;BME280;36745;48.544;8.918;2022-11-04T19:17:29;96781.41;;;9.23;93.91
50774;BME280;36745;48.544;8.918;2022-11-04T19:20:50;96777.69;;;9.17;94.28
50774;BME280;36745;48.544;8.918;2022-11-04T19:24:11;96787.50;;;9.05;95.36
50774;BME280;36745;48.544;8.918;2022-11-04T19:27:32;96787.50;;;9.05;96.78
50774;BME280;36745;48.544;8.918;2022-11-04T19:30:58;96799.56;;;9.08;96.93
50774;BME280;36745;48.544;8.918;2022-11-04T19:34:20;96807.81;;;9.08;97.59
50774;BME280;36745;48.544;8.918;2022-11-04T19:37:41;96807.81;;;9.08;97.60
50774;BME280;36745;48.544;8.918;2022-11-04T19:41:05;96822.81;;;9.07;97.30
50774;BME280;36745;48.544;8.918;2022-11-04T19:44:27;96827.31;;;9.01;98.00
50774;BME280;36745;48.544;8.918;2022-11-04T19:47:48;96825.97;;;9.05;97.98